sensor_id;sensor_type;location;lat;lon;timestamp;P1;durP1;ratioP1;P2;durP2;ratioP2
12224;SDS011;6175;50.956;11.064;2024-01-06T00:00:12;2.03;;;1.60;;
12224;SDS011;6175;50.956;11.064;2024-01-06T00:02:41;2.70;;;1.65;;
12224;SDS011;6175;50.956;11.064;2024-01-06T00:05:09;3.65;;;1.83;;
12224;SDS011;6175;50.956;11.064;2024-01-06T00:07:36;2.00;;;1.63;;
12224;SDS011;6175;50.956;11.064;2024-01-06T00:10:03;2.67;;;1.80;;
12224;SDS011;6175;50.956;11.064;2024-01-06T00:12:31;3.03;;;1.35;;
12224;SDS011;6175;50.956;11.064;2024-01-06T00:14:58;3.55;;;1.67;;
12224;SDS011;6175;50.956;11.064;2024-01-06T00:17:25;1.65;;;1.50;;
12224;SDS011;6175;50.956;11.064;2024-01-06T00:19:52;3.15;;;1.70;;
12224;SDS011;6175;50.956;11.064;2024-01-06T00:22:21;2.17;;;1.60;;
12224;SDS011;6175;50.956;11.064;2024-01-06T00:24:48;2.40;;;1.83;;
12224;SDS011;6175;50.956;11.064;2024-01-06T00:27:15;2.60;;;1.90;;
12224;SDS011;6175;50.956;11.064;2024-01-06T00:29:42;5.72;;;1.98;;
12224;SDS011;6175;50.956;11.064;2024-01-06T00:32:10;3.70;;;1.85;;
12224;SDS011;6175;50.956;11.064;2024-01-06T00:34:37;3.30;;;1.90;;
12224;SDS011;6175;50.956;11.064;2024-01-06T00:37:04;2.25;;;1.67;;
12224;SDS011;6175;50.956;11.064;2024-01-06T00:39:32;3.47;;;1.50;;
12224;SDS011;6175;50.956;11.064;2024-01-06T00:41:59;2.83;;;1.63;;
12224;SDS011;6175;50.956;11.064;2024-01-06T00:44:27;3.78;;;1.63;;
12224;SDS011;6175;50.956;11.064;2024-01-06T00:46:54;2.72;;;1.65;;
12224;SDS011;6175;50.956;11.064;2024-01-06T00:49:21;2.72;;;1.80;;
12224;SDS011;6175;50.956;11.064;2024-01-06T00:51:48;3.63;;;1.95;;
12224;SDS011;6175;50.956;11.064;2024-01-06T00:54:16;2.65;;;1.88;;
12224;SDS011;6175;50.956;11.064;2024-01-06T00:56:44;2.55;;;1.65;;
12224;SDS011;6175;50.956;11.064;2024-01-06T00:59:11;2.90;;;1.90;;
12224;SDS011;6175;50.956;11.064;2024-01-06T01:01:38;4.95;;;1.67;;
12224;SDS011;6175;50.956;11.064;2024-01-06T01:04:05;2.65;;;1.60;;
12224;SDS011;6175;50.956;11.064;2024-01-06T01:06:32;3.80;;;1.65;;
12224;SDS011;6175;50.956;11.064;2024-01-06T01:08:59;4.78;;;1.67;;
12224;SDS011;6175;50.956;11.064;2024-01-06T01:11:26;4.07;;;1.65;;
12224;SDS011;6175;50.956;11.064;2024-01-06T01:13:55;3.60;;;1.80;;
12224;SDS011;6175;50.956;11.064;2024-01-06T01:16:22;3.38;;;1.90;;
12224;SDS011;6175;50.956;11.064;2024-01-06T01:18:49;2.92;;;2.03;;
12224;SDS011;6175;50.956;11.064;2024-01-06T01:21:16;4.05;;;1.95;;
12224;SDS011;6175;50.956;11.064;2024-01-06T01:23:43;4.47;;;1.92;;
12224;SDS011;6175;50.956;11.064;2024-01-06T01:26:10;2.55;;;1.50;;
12224;SDS011;6175;50.956;11.064;2024-01-06T01:28:37;2.90;;;1.88;;
12224;SDS011;6175;50.956;11.064;2024-01-06T01:31:06;2.35;;;1.63;;
12224;SDS011;6175;50.956;11.064;2024-01-06T01:33:33;2.85;;;1.65;;
12224;SDS011;6175;50.956;11.064;2024-01-06T01:36:00;2.90;;;1.73;;
12224;SDS011;6175;50.956;11.064;2024-01-06T01:38:27;2.80;;;1.70;;
12224;SDS011;6175;50.956;11.064;2024-01-06T01:40:54;5.15;;;1.77;;
12224;SDS011;6175;50.956;11.064;2024-01-06T01:43:21;2.25;;;1.63;;
12224;SDS011;6175;50.956;11.064;2024-01-06T01:45:50;3.85;;;1.55;;
12224;SDS011;6175;50.956;11.064;2024-01-06T01:48:20;2.75;;;1.70;;
12224;SDS011;6175;50.956;11.064;2024-01-06T01:50:48;4.82;;;2.22;;
12224;SDS011;6175;50.956;11.064;2024-01-06T01:53:15;4.05;;;2.00;;
12224;SDS011;6175;50.956;11.064;2024-01-06T01:55:42;3.63;;;1.83;;
12224;SDS011;6175;50.956;11.064;2024-01-06T01:58:10;4.13;;;2.03;;
12224;SDS011;6175;50.956;11.064;2024-01-06T02:00:39;2.90;;;1.70;;
12224;SDS011;6175;50.956;11.064;2024-01-06T02:03:06;1.50;;;1.35;;
12224;SDS011;6175;50.956;11.064;2024-01-06T02:05:35;2.50;;;1.65;;
12224;SDS011;6175;50.956;11.064;2024-01-06T02:08:03;2.25;;;1.67;;
12224;SDS011;6175;50.956;11.064;2024-01-06T02:10:30;1.83;;;1.70;;
12224;SDS011;6175;50.956;11.064;2024-01-06T02:12:57;2.10;;;1.85;;
12224;SDS011;6175;50.956;11.064;2024-01-06T02:15:24;2.42;;;1.90;;
12224;SDS011;6175;50.956;11.064;2024-01-06T02:17:51;2.28;;;1.70;;
12224;SDS011;6175;50.956;11.064;2024-01-06T02:20:18;3.40;;;1.73;;
12224;SDS011;6175;50.956;11.064;2024-01-06T02:22:49;3.10;;;1.88;;
12224;SDS011;6175;50.956;11.064;2024-01-06T02:25:17;4.05;;;2.13;;
12224;SDS011;6175;50.956;11.064;2024-01-06T02:27:44;3.88;;;2.13;;
12224;SDS011;6175;50.956;11.064;2024-01-06T02:30:12;3.15;;;1.83;;
12224;SDS011;6175;50.956;11.064;2024-01-06T02:32:39;3.15;;;1.73;;
12224;SDS011;6175;50.956;11.064;2024-01-06T02:35:06;2.63;;;1.83;;
12224;SDS011;6175;50.956;11.064;2024-01-06T02:37:33;1.65;;;1.55;;
12224;SDS011;6175;50.956;11.064;2024-01-06T02:40:02;2.17;;;1.80;;
12224;SDS011;6175;50.956;11.064;2024-01-06T02:42:28;3.47;;;1.70;;
12224;SDS011;6175;50.956;11.064;2024-01-06T02:44:55;3.13;;;1.70;;
12224;SDS011;6175;50.956;11.064;2024-01-06T02:47:22;2.97;;;1.63;;
12224;SDS011;6175;50.956;11.064;2024-01-06T02:49:49;3.90;;;1.70;;
12224;SDS011;6175;50.956;11.064;2024-01-06T02:52:16;3.63;;;1.60;;
12224;SDS011;6175;50.956;11.064;2024-01-06T02:54:43;2.55;;;1.70;;
12224;SDS011;6175;50.956;11.064;2024-01-06T02:57:11;2.90;;;1.55;;
12224;SDS011;6175;50.956;11.064;2024-01-06T02:59:39;3.35;;;1.70;;
12224;SDS011;6175;50.956;11.064;2024-01-06T03:02:06;9.10;;;2.05;;
12224;SDS011;6175;50.956;11.064;2024-01-06T03:04:33;2.95;;;1.52;;
12224;SDS011;6175;50.956;11.064;2024-01-06T03:07:01;1.50;;;1.40;;
12224;SDS011;6175;50.956;11.064;2024-01-06T03:09:28;2.40;;;1.42;;
12224;SDS011;6175;50.956;11.064;2024-01-06T03:11:55;2.78;;;1.60;;
12224;SDS011;6175;50.956;11.064;2024-01-06T03:14:24;3.50;;;1.67;;
12224;SDS011;6175;50.956;11.064;2024-01-06T03:16:51;1.65;;;1.50;;
12224;SDS011;6175;50.956;11.064;2024-01-06T03:19:18;2.97;;;1.50;;
12224;SDS011;6175;50.956;11.064;2024-01-06T03:21:45;3.55;;;1.48;;
12224;SDS011;6175;50.956;11.064;2024-01-06T03:24:12;3.40;;;1.63;;
12224;SDS011;6175;50.956;11.064;2024-01-06T03:26:39;4.65;;;1.70;;
12224;SDS011;6175;50.956;11.064;2024-01-06T03:29:07;2.40;;;1.50;;
12224;SDS011;6175;50.956;11.064;2024-01-06T03:31:35;3.17;;;1.55;;
12224;SDS011;6175;50.956;11.064;2024-01-06T03:34:02;1.45;;;1.35;;
12224;SDS011;6175;50.956;11.064;2024-01-06T03:36:29;2.78;;;1.52;;
12224;SDS011;6175;50.956;11.064;2024-01-06T03:38:56;3.67;;;1.50;;
12224;SDS011;6175;50.956;11.064;2024-01-06T03:41:23;3.70;;;1.40;;
12224;SDS011;6175;50.956;11.064;2024-01-06T03:43:50;1.70;;;1.60;;
12224;SDS011;6175;50.956;11.064;2024-01-06T03:46:18;2.40;;;1.58;;
12224;SDS011;6175;50.956;11.064;2024-01-06T03:48:46;1.88;;;1.35;;
12224;SDS011;6175;50.956;11.064;2024-01-06T03:51:13;2.35;;;1.50;;
12224;SDS011;6175;50.956;11.064;2024-01-06T03:53:40;2.55;;;1.52;;
12224;SDS011;6175;50.956;11.064;2024-01-06T03:56:07;5.25;;;1.83;;
12224;SDS011;6175;50.956;11.064;2024-01-06T03:58:35;4.45;;;1.38;;
12224;SDS011;6175;50.956;11.064;2024-01-06T04:01:02;1.95;;;1.60;;
12224;SDS011;6175;50.956;11.064;2024-01-06T04:03:29;2.78;;;1.70;;
12224;SDS011;6175;50.956;11.064;2024-01-06T04:05:57;2.95;;;1.80;;
12224;SDS011;6175;50.956;11.064;2024-01-06T04:08:24;2.50;;;1.42;;
12224;SDS011;6175;50.956;11.064;2024-01-06T04:10:51;2.47;;;1.50;;
12224;SDS011;6175;50.956;11.064;2024-01-06T04:13:18;3.53;;;1.70;;
12224;SDS011;6175;50.956;11.064;2024-01-06T04:15:45;2.45;;;1.58;;
12224;SDS011;6175;50.956;11.064;2024-01-06T04:18:13;1.48;;;1.38;;
12224;SDS011;6175;50.956;11.064;2024-01-06T04:20:40;2.50;;;1.85;;
12224;SDS011;6175;50.956;11.064;2024-01-06T04:23:08;4.10;;;1.70;;
12224;SDS011;6175;50.956;11.064;2024-01-06T04:25:34;1.55;;;1.40;;
12224;SDS011;6175;50.956;11.064;2024-01-06T04:28:01;2.33;;;1.67;;
12224;SDS011;6175;50.956;11.064;2024-01-06T04:30:28;1.85;;;1.40;;
12224;SDS011;6175;50.956;11.064;2024-01-06T04:32:55;4.10;;;1.77;;
12224;SDS011;6175;50.956;11.064;2024-01-06T04:35:23;1.95;;;1.42;;
12224;SDS011;6175;50.956;11.064;2024-01-06T04:37:50;3.42;;;1.70;;
12224;SDS011;6175;50.956;11.064;2024-01-06T04:40:19;1.45;;;1.35;;
12224;SDS011;6175;50.956;11.064;2024-01-06T04:42:46;3.33;;;1.55;;
12224;SDS011;6175;50.956;11.064;2024-01-06T04:45:13;4.00;;;2.13;;
12224;SDS011;6175;50.956;11.064;2024-01-06T04:47:40;4.15;;;1.70;;
12224;SDS011;6175;50.956;11.064;2024-01-06T04:50:07;2.22;;;1.48;;
12224;SDS011;6175;50.956;11.064;2024-01-06T04:52:34;4.43;;;2.13;;
12224;SDS011;6175;50.956;11.064;2024-01-06T04:55:01;1.80;;;1.70;;
12224;SDS011;6175;50.956;11.064;2024-01-06T04:57:30;1.85;;;1.58;;
12224;SDS011;6175;50.956;11.064;2024-01-06T04:59:57;3.28;;;1.90;;
12224;SDS011;6175;50.956;11.064;2024-01-06T05:02:24;3.92;;;2.25;;
12224;SDS011;6175;50.956;11.064;2024-01-06T05:04:51;2.85;;;1.92;;
12224;SDS011;6175;50.956;11.064;2024-01-06T05:07:18;3.60;;;1.88;;
12224;SDS011;6175;50.956;11.064;2024-01-06T05:09:45;2.50;;;1.95;;
12224;SDS011;6175;50.956;11.064;2024-01-06T05:12:13;3.55;;;1.70;;
12224;SDS011;6175;50.956;11.064;2024-01-06T05:14:41;2.17;;;1.95;;
12224;SDS011;6175;50.956;11.064;2024-01-06T05:17:08;2.40;;;2.00;;
12224;SDS011;6175;50.956;11.064;2024-01-06T05:19:35;3.45;;;2.17;;
12224;SDS011;6175;50.956;11.064;2024-01-06T05:22:03;3.10;;;2.15;;
12224;SDS011;6175;50.956;11.064;2024-01-06T05:24:30;1.73;;;1.63;;
12224;SDS011;6175;50.956;11.064;2024-01-06T05:26:57;3.78;;;1.80;;
12224;SDS011;6175;50.956;11.064;2024-01-06T05:29:24;2.50;;;2.00;;
12224;SDS011;6175;50.956;11.064;2024-01-06T05:31:53;2.28;;;1.80;;
12224;SDS011;6175;50.956;11.064;2024-01-06T05:34:20;2.60;;;1.90;;
12224;SDS011;6175;50.956;11.064;2024-01-06T05:36:47;3.30;;;2.15;;
12224;SDS011;6175;50.956;11.064;2024-01-06T05:39:14;3.92;;;2.55;;
12224;SDS011;6175;50.956;11.064;2024-01-06T05:41:41;7.50;;;2.95;;
12224;SDS011;6175;50.956;11.064;2024-01-06T05:44:08;4.38;;;2.25;;
12224;SDS011;6175;50.956;11.064;2024-01-06T05:46:35;2.42;;;2.10;;
12224;SDS011;6175;50.956;11.064;2024-01-06T05:49:04;3.95;;;2.10;;
12224;SDS011;6175;50.956;11.064;2024-01-06T05:51:31;2.00;;;1.80;;
12224;SDS011;6175;50.956;11.064;2024-01-06T05:53:58;2.42;;;2.17;;
12224;SDS011;6175;50.956;11.064;2024-01-06T05:56:25;2.80;;;1.98;;
12224;SDS011;6175;50.956;11.064;2024-01-06T05:58:53;4.65;;;1.88;;
12224;SDS011;6175;50.956;11.064;2024-01-06T06:01:20;2.92;;;1.85;;
12224;SDS011;6175;50.956;11.064;2024-01-06T06:03:47;2.53;;;1.85;;
12224;SDS011;6175;50.956;11.064;2024-01-06T06:06:16;2.25;;;1.63;;
12224;SDS011;6175;50.956;11.064;2024-01-06T06:08:43;3.42;;;2.05;;
12224;SDS011;6175;50.956;11.064;2024-01-06T06:11:10;3.55;;;1.90;;
12224;SDS011;6175;50.956;11.064;2024-01-06T06:13:38;3.03;;;2.10;;
12224;SDS011;6175;50.956;11.064;2024-01-06T06:16:05;2.05;;;1.65;;
12224;SDS011;6175;50.956;11.064;2024-01-06T06:18:33;4.80;;;2.40;;
12224;SDS011;6175;50.956;11.064;2024-01-06T06:21:00;5.70;;;2.28;;
12224;SDS011;6175;50.956;11.064;2024-01-06T06:23:29;3.33;;;1.70;;
12224;SDS011;6175;50.956;11.064;2024-01-06T06:25:57;1.80;;;1.70;;
12224;SDS011;6175;50.956;11.064;2024-01-06T06:28:24;4.05;;;1.67;;
12224;SDS011;6175;50.956;11.064;2024-01-06T06:30:51;5.03;;;2.10;;
12224;SDS011;6175;50.956;11.064;2024-01-06T06:33:18;1.83;;;1.60;;
12224;SDS011;6175;50.956;11.064;2024-01-06T06:35:45;2.55;;;1.70;;
12224;SDS011;6175;50.956;11.064;2024-01-06T06:38:13;1.83;;;1.55;;
12224;SDS011;6175;50.956;11.064;2024-01-06T06:40:41;3.78;;;1.90;;
12224;SDS011;6175;50.956;11.064;2024-01-06T06:43:08;2.28;;;1.55;;
12224;SDS011;6175;50.956;11.064;2024-01-06T06:45:35;2.80;;;1.80;;
12224;SDS011;6175;50.956;11.064;2024-01-06T06:48:02;2.00;;;1.80;;
12224;SDS011;6175;50.956;11.064;2024-01-06T06:50:29;3.15;;;2.00;;
12224;SDS011;6175;50.956;11.064;2024-01-06T06:52:56;1.73;;;1.63;;
12224;SDS011;6175;50.956;11.064;2024-01-06T06:55:23;3.78;;;1.80;;
12224;SDS011;6175;50.956;11.064;2024-01-06T06:57:53;2.47;;;1.80;;
12224;SDS011;6175;50.956;11.064;2024-01-06T07:00:20;2.90;;;1.67;;
12224;SDS011;6175;50.956;11.064;2024-01-06T07:02:48;3.47;;;2.28;;
12224;SDS011;6175;50.956;11.064;2024-01-06T07:05:15;1.75;;;1.50;;
12224;SDS011;6175;50.956;11.064;2024-01-06T07:07:42;3.05;;;2.10;;
12224;SDS011;6175;50.956;11.064;2024-01-06T07:10:11;3.03;;;1.92;;
12224;SDS011;6175;50.956;11.064;2024-01-06T07:12:39;2.63;;;1.90;;
12224;SDS011;6175;50.956;11.064;2024-01-06T07:15:08;3.05;;;1.48;;
12224;SDS011;6175;50.956;11.064;2024-01-06T07:17:36;1.77;;;1.65;;
12224;SDS011;6175;50.956;11.064;2024-01-06T07:20:04;2.78;;;1.83;;
12224;SDS011;6175;50.956;11.064;2024-01-06T07:22:32;4.20;;;2.20;;
12224;SDS011;6175;50.956;11.064;2024-01-06T07:25:00;2.30;;;1.92;;
12224;SDS011;6175;50.956;11.064;2024-01-06T07:27:27;2.58;;;2.03;;
12224;SDS011;6175;50.956;11.064;2024-01-06T07:29:55;2.00;;;1.77;;
12224;SDS011;6175;50.956;11.064;2024-01-06T07:32:23;3.60;;;2.00;;
12224;SDS011;6175;50.956;11.064;2024-01-06T07:34:50;2.60;;;2.30;;
12224;SDS011;6175;50.956;11.064;2024-01-06T07:37:18;3.08;;;2.10;;
12224;SDS011;6175;50.956;11.064;2024-01-06T07:39:45;4.47;;;2.10;;
12224;SDS011;6175;50.956;11.064;2024-01-06T07:42:12;3.53;;;2.08;;
12224;SDS011;6175;50.956;11.064;2024-01-06T07:44:39;3.03;;;2.20;;
12224;SDS011;6175;50.956;11.064;2024-01-06T07:47:06;4.47;;;1.92;;
12224;SDS011;6175;50.956;11.064;2024-01-06T07:49:35;3.40;;;1.90;;
12224;SDS011;6175;50.956;11.064;2024-01-06T07:52:02;3.10;;;2.08;;
12224;SDS011;6175;50.956;11.064;2024-01-06T07:54:29;2.70;;;2.15;;
12224;SDS011;6175;50.956;11.064;2024-01-06T07:56:56;3.67;;;2.45;;
12224;SDS011;6175;50.956;11.064;2024-01-06T07:59:24;2.85;;;1.98;;
12224;SDS011;6175;50.956;11.064;2024-01-06T08:01:51;2.45;;;2.25;;
12224;SDS011;6175;50.956;11.064;2024-01-06T08:04:18;2.95;;;2.00;;
12224;SDS011;6175;50.956;11.064;2024-01-06T08:06:47;2.03;;;1.83;;
12224;SDS011;6175;50.956;11.064;2024-01-06T08:09:14;3.58;;;2.15;;
12224;SDS011;6175;50.956;11.064;2024-01-06T08:11:41;2.00;;;1.80;;
12224;SDS011;6175;50.956;11.064;2024-01-06T08:14:11;1.85;;;1.75;;
12224;SDS011;6175;50.956;11.064;2024-01-06T08:16:38;2.35;;;1.60;;
12224;SDS011;6175;50.956;11.064;2024-01-06T08:19:05;2.05;;;1.85;;
12224;SDS011;6175;50.956;11.064;2024-01-06T08:21:32;3.35;;;1.90;;
12224;SDS011;6175;50.956;11.064;2024-01-06T08:24:01;2.35;;;1.83;;
12224;SDS011;6175;50.956;11.064;2024-01-06T08:26:28;3.30;;;2.10;;
12224;SDS011;6175;50.956;11.064;2024-01-06T08:28:55;2.10;;;1.90;;
12224;SDS011;6175;50.956;11.064;2024-01-06T08:31:22;2.50;;;2.13;;
12224;SDS011;6175;50.956;11.064;2024-01-06T08:33:49;2.47;;;1.88;;
12224;SDS011;6175;50.956;11.064;2024-01-06T08:36:16;3.22;;;2.20;;
12224;SDS011;6175;50.956;11.064;2024-01-06T08:38:43;2.65;;;1.95;;
12224;SDS011;6175;50.956;11.064;2024-01-06T08:41:12;2.50;;;2.00;;
12224;SDS011;6175;50.956;11.064;2024-01-06T08:43:39;3.05;;;2.10;;
12224;SDS011;6175;50.956;11.064;2024-01-06T08:46:06;2.40;;;2.20;;
12224;SDS011;6175;50.956;11.064;2024-01-06T08:48:33;3.33;;;2.40;;
12224;SDS011;6175;50.956;11.064;2024-01-06T08:51:01;2.50;;;2.30;;
12224;SDS011;6175;50.956;11.064;2024-01-06T08:53:28;2.15;;;1.95;;
12224;SDS011;6175;50.956;11.064;2024-01-06T08:55:55;2.97;;;1.98;;
12224;SDS011;6175;50.956;11.064;2024-01-06T08:58:23;3.38;;;2.42;;
12224;SDS011;6175;50.956;11.064;2024-01-06T09:00:50;2.25;;;1.90;;
12224;SDS011;6175;50.956;11.064;2024-01-06T09:03:18;2.42;;;2.20;;
12224;SDS011;6175;50.956;11.064;2024-01-06T09:05:50;2.55;;;2.10;;
12224;SDS011;6175;50.956;11.064;2024-01-06T09:08:17;2.05;;;1.85;;
12224;SDS011;6175;50.956;11.064;2024-01-06T09:10:44;2.72;;;2.05;;
12224;SDS011;6175;50.956;11.064;2024-01-06T09:13:11;2.45;;;2.05;;
12224;SDS011;6175;50.956;11.064;2024-01-06T09:15:40;2.20;;;2.00;;
12224;SDS011;6175;50.956;11.064;2024-01-06T09:18:08;2.40;;;1.92;;
12224;SDS011;6175;50.956;11.064;2024-01-06T09:20:34;2.60;;;2.20;;
12224;SDS011;6175;50.956;11.064;2024-01-06T09:23:01;2.63;;;1.63;;
12224;SDS011;6175;50.956;11.064;2024-01-06T09:25:29;2.10;;;1.90;;
12224;SDS011;6175;50.956;11.064;2024-01-06T09:27:56;2.03;;;1.83;;
12224;SDS011;6175;50.956;11.064;2024-01-06T09:30:24;2.35;;;2.00;;
12224;SDS011;6175;50.956;11.064;2024-01-06T09:32:53;2.10;;;1.90;;
12224;SDS011;6175;50.956;11.064;2024-01-06T09:35:21;2.47;;;1.83;;
12224;SDS011;6175;50.956;11.064;2024-01-06T09:37:48;2.20;;;1.73;;
12224;SDS011;6175;50.956;11.064;2024-01-06T09:40:14;2.28;;;2.05;;
12224;SDS011;6175;50.956;11.064;2024-01-06T09:42:48;2.10;;;1.90;;
12224;SDS011;6175;50.956;11.064;2024-01-06T09:45:15;3.55;;;2.42;;
12224;SDS011;6175;50.956;11.064;2024-01-06T09:47:42;4.18;;;2.40;;
12224;SDS011;6175;50.956;11.064;2024-01-06T09:50:14;2.63;;;2.22;;
12224;SDS011;6175;50.956;11.064;2024-01-06T09:52:45;2.90;;;2.28;;
12224;SDS011;6175;50.956;11.064;2024-01-06T09:55:18;3.35;;;2.00;;
12224;SDS011;6175;50.956;11.064;2024-01-06T09:57:51;2.20;;;1.70;;
12224;SDS011;6175;50.956;11.064;2024-01-06T10:00:18;2.17;;;1.90;;
12224;SDS011;6175;50.956;11.064;2024-01-06T10:02:46;2.67;;;1.98;;
12224;SDS011;6175;50.956;11.064;2024-01-06T10:05:15;2.60;;;2.38;;
12224;SDS011;6175;50.956;11.064;2024-01-06T10:07:42;2.17;;;1.98;;
12224;SDS011;6175;50.956;11.064;2024-01-06T10:10:09;2.97;;;2.30;;
12224;SDS011;6175;50.956;11.064;2024-01-06T10:12:37;3.45;;;1.80;;
12224;SDS011;6175;50.956;11.064;2024-01-06T10:15:05;1.73;;;1.60;;
12224;SDS011;6175;50.956;11.064;2024-01-06T10:17:32;3.55;;;1.77;;
12224;SDS011;6175;50.956;11.064;2024-01-06T10:19:59;2.58;;;1.50;;
12224;SDS011;6175;50.956;11.064;2024-01-06T10:22:28;2.58;;;1.73;;
12224;SDS011;6175;50.956;11.064;2024-01-06T10:24:55;2.08;;;1.77;;
12224;SDS011;6175;50.956;11.064;2024-01-06T10:27:22;1.75;;;1.55;;
12224;SDS011;6175;50.956;11.064;2024-01-06T10:29:49;2.58;;;1.70;;
12224;SDS011;6175;50.956;11.064;2024-01-06T10:32:16;1.73;;;1.63;;
12224;SDS011;6175;50.956;11.064;2024-01-06T10:34:44;3.13;;;1.63;;
12224;SDS011;6175;50.956;11.064;2024-01-06T10:37:11;3.20;;;1.80;;
12224;SDS011;6175;50.956;11.064;2024-01-06T10:39:39;2.47;;;1.80;;
12224;SDS011;6175;50.956;11.064;2024-01-06T10:42:06;1.70;;;1.60;;
12224;SDS011;6175;50.956;11.064;2024-01-06T10:44:35;4.10;;;1.63;;
12224;SDS011;6175;50.956;11.064;2024-01-06T10:47:02;2.58;;;1.60;;
12224;SDS011;6175;50.956;11.064;2024-01-06T10:49:30;3.28;;;1.85;;
12224;SDS011;6175;50.956;11.064;2024-01-06T10:51:57;3.35;;;1.88;;
12224;SDS011;6175;50.956;11.064;2024-01-06T10:54:24;2.30;;;2.05;;
12224;SDS011;6175;50.956;11.064;2024-01-06T10:56:54;4.55;;;2.85;;
12224;SDS011;6175;50.956;11.064;2024-01-06T10:59:23;2.75;;;2.10;;
12224;SDS011;6175;50.956;11.064;2024-01-06T11:01:51;2.42;;;1.77;;
12224;SDS011;6175;50.956;11.064;2024-01-06T11:04:19;2.72;;;2.15;;
12224;SDS011;6175;50.956;11.064;2024-01-06T11:06:48;3.72;;;2.53;;
12224;SDS011;6175;50.956;11.064;2024-01-06T11:09:17;12.80;;;7.78;;
12224;SDS011;6175;50.956;11.064;2024-01-06T11:11:48;5.10;;;4.20;;
12224;SDS011;6175;50.956;11.064;2024-01-06T11:14:21;3.00;;;2.30;;
12224;SDS011;6175;50.956;11.064;2024-01-06T11:16:50;3.70;;;2.70;;
12224;SDS011;6175;50.956;11.064;2024-01-06T11:19:41;4.03;;;2.22;;
12224;SDS011;6175;50.956;11.064;2024-01-06T11:22:19;3.90;;;2.40;;
12224;SDS011;6175;50.956;11.064;2024-01-06T11:24:52;2.60;;;2.22;;
12224;SDS011;6175;50.956;11.064;2024-01-06T11:27:22;3.70;;;2.50;;
12224;SDS011;6175;50.956;11.064;2024-01-06T11:29:53;4.80;;;2.20;;
12224;SDS011;6175;50.956;11.064;2024-01-06T11:32:20;4.85;;;2.08;;
12224;SDS011;6175;50.956;11.064;2024-01-06T11:34:52;4.30;;;3.55;;
12224;SDS011;6175;50.956;11.064;2024-01-06T11:37:23;4.60;;;2.78;;
12224;SDS011;6175;50.956;11.064;2024-01-06T11:39:50;5.82;;;2.70;;
12224;SDS011;6175;50.956;11.064;2024-01-06T11:42:18;3.88;;;3.15;;
12224;SDS011;6175;50.956;11.064;2024-01-06T11:44:49;4.38;;;2.78;;
12224;SDS011;6175;50.956;11.064;2024-01-06T11:47:18;6.57;;;5.20;;
12224;SDS011;6175;50.956;11.064;2024-01-06T11:49:48;8.32;;;5.20;;
12224;SDS011;6175;50.956;11.064;2024-01-06T11:52:21;4.88;;;2.80;;
12224;SDS011;6175;50.956;11.064;2024-01-06T11:54:48;2.65;;;2.10;;
12224;SDS011;6175;50.956;11.064;2024-01-06T11:57:16;3.47;;;2.50;;
12224;SDS011;6175;50.956;11.064;2024-01-06T11:59:43;6.15;;;2.20;;
12224;SDS011;6175;50.956;11.064;2024-01-06T12:02:13;5.63;;;2.58;;
12224;SDS011;6175;50.956;11.064;2024-01-06T12:04:41;4.75;;;3.63;;
12224;SDS011;6175;50.956;11.064;2024-01-06T12:07:09;3.70;;;3.35;;
12224;SDS011;6175;50.956;11.064;2024-01-06T12:09:38;3.08;;;2.88;;
12224;SDS011;6175;50.956;11.064;2024-01-06T12:12:05;3.47;;;3.03;;
12224;SDS011;6175;50.956;11.064;2024-01-06T12:14:33;7.13;;;6.43;;
12224;SDS011;6175;50.956;11.064;2024-01-06T12:17:00;5.65;;;4.50;;
12224;SDS011;6175;50.956;11.064;2024-01-06T12:19:29;21.63;;;14.70;;
12224;SDS011;6175;50.956;11.064;2024-01-06T12:21:57;6.78;;;4.00;;
12224;SDS011;6175;50.956;11.064;2024-01-06T12:24:26;6.25;;;4.40;;
12224;SDS011;6175;50.956;11.064;2024-01-06T12:26:55;5.35;;;4.40;;
12224;SDS011;6175;50.956;11.064;2024-01-06T12:29:23;4.97;;;3.97;;
12224;SDS011;6175;50.956;11.064;2024-01-06T12:31:53;4.65;;;4.25;;
12224;SDS011;6175;50.956;11.064;2024-01-06T12:34:20;8.80;;;5.38;;
12224;SDS011;6175;50.956;11.064;2024-01-06T12:36:47;7.10;;;4.35;;
12224;SDS011;6175;50.956;11.064;2024-01-06T12:39:16;3.97;;;3.35;;
12224;SDS011;6175;50.956;11.064;2024-01-06T12:41:43;5.07;;;2.97;;
12224;SDS011;6175;50.956;11.064;2024-01-06T12:44:10;18.27;;;11.45;;
12224;SDS011;6175;50.956;11.064;2024-01-06T12:46:38;20.23;;;11.65;;
12224;SDS011;6175;50.956;11.064;2024-01-06T12:49:05;13.75;;;10.02;;
12224;SDS011;6175;50.956;11.064;2024-01-06T12:51:32;9.77;;;7.70;;
12224;SDS011;6175;50.956;11.064;2024-01-06T12:54:00;5.95;;;5.35;;
12224;SDS011;6175;50.956;11.064;2024-01-06T12:56:28;5.50;;;4.97;;
12224;SDS011;6175;50.956;11.064;2024-01-06T12:58:55;20.27;;;18.38;;
12224;SDS011;6175;50.956;11.064;2024-01-06T13:01:22;6.88;;;6.18;;
12224;SDS011;6175;50.956;11.064;2024-01-06T13:03:49;5.57;;;4.93;;
12224;SDS011;6175;50.956;11.064;2024-01-06T13:06:18;4.40;;;3.65;;
12224;SDS011;6175;50.956;11.064;2024-01-06T13:08:45;3.85;;;3.13;;
12224;SDS011;6175;50.956;11.064;2024-01-06T13:11:12;4.05;;;3.40;;
12224;SDS011;6175;50.956;11.064;2024-01-06T13:13:41;4.90;;;3.28;;
12224;SDS011;6175;50.956;11.064;2024-01-06T13:16:08;4.55;;;3.30;;
12224;SDS011;6175;50.956;11.064;2024-01-06T13:18:36;4.13;;;3.72;;
12224;SDS011;6175;50.956;11.064;2024-01-06T13:21:03;7.10;;;6.43;;
12224;SDS011;6175;50.956;11.064;2024-01-06T13:23:31;5.50;;;4.20;;
12224;SDS011;6175;50.956;11.064;2024-01-06T13:25:58;5.53;;;4.20;;
12224;SDS011;6175;50.956;11.064;2024-01-06T13:28:25;5.47;;;3.80;;
12224;SDS011;6175;50.956;11.064;2024-01-06T13:30:53;3.30;;;3.00;;
12224;SDS011;6175;50.956;11.064;2024-01-06T13:33:21;4.25;;;2.97;;
12224;SDS011;6175;50.956;11.064;2024-01-06T13:35:48;3.60;;;3.08;;
12224;SDS011;6175;50.956;11.064;2024-01-06T13:38:15;4.50;;;2.78;;
12224;SDS011;6175;50.956;11.064;2024-01-06T13:40:42;3.92;;;3.00;;
12224;SDS011;6175;50.956;11.064;2024-01-06T13:43:10;3.97;;;2.75;;
12224;SDS011;6175;50.956;11.064;2024-01-06T13:45:40;6.18;;;4.70;;
12224;SDS011;6175;50.956;11.064;2024-01-06T13:48:10;4.03;;;3.40;;
12224;SDS011;6175;50.956;11.064;2024-01-06T13:50:37;7.05;;;3.28;;
12224;SDS011;6175;50.956;11.064;2024-01-06T13:53:04;5.68;;;3.10;;
12224;SDS011;6175;50.956;11.064;2024-01-06T13:55:32;10.77;;;6.38;;
12224;SDS011;6175;50.956;11.064;2024-01-06T13:58:00;5.13;;;4.07;;
12224;SDS011;6175;50.956;11.064;2024-01-06T14:00:27;4.93;;;3.55;;
12224;SDS011;6175;50.956;11.064;2024-01-06T14:02:54;4.22;;;3.70;;
12224;SDS011;6175;50.956;11.064;2024-01-06T14:05:23;4.32;;;3.53;;
12224;SDS011;6175;50.956;11.064;2024-01-06T14:07:50;8.05;;;5.93;;
12224;SDS011;6175;50.956;11.064;2024-01-06T14:10:17;8.95;;;4.65;;
12224;SDS011;6175;50.956;11.064;2024-01-06T14:12:44;7.55;;;5.70;;
12224;SDS011;6175;50.956;11.064;2024-01-06T14:15:12;6.15;;;4.53;;
12224;SDS011;6175;50.956;11.064;2024-01-06T14:17:39;7.70;;;5.78;;
12224;SDS011;6175;50.956;11.064;2024-01-06T14:20:07;10.48;;;6.10;;
12224;SDS011;6175;50.956;11.064;2024-01-06T14:22:39;8.45;;;5.45;;
12224;SDS011;6175;50.956;11.064;2024-01-06T14:25:06;8.23;;;5.97;;
12224;SDS011;6175;50.956;11.064;2024-01-06T14:27:33;5.57;;;4.28;;
12224;SDS011;6175;50.956;11.064;2024-01-06T14:30:00;6.50;;;4.03;;
12224;SDS011;6175;50.956;11.064;2024-01-06T14:32:28;5.20;;;3.88;;
12224;SDS011;6175;50.956;11.064;2024-01-06T14:34:55;4.65;;;3.60;;
12224;SDS011;6175;50.956;11.064;2024-01-06T14:37:22;6.97;;;3.92;;
12224;SDS011;6175;50.956;11.064;2024-01-06T14:39:50;5.13;;;3.70;;
12224;SDS011;6175;50.956;11.064;2024-01-06T14:42:18;6.38;;;3.55;;
12224;SDS011;6175;50.956;11.064;2024-01-06T14:44:46;6.53;;;3.38;;
12224;SDS011;6175;50.956;11.064;2024-01-06T14:47:13;5.10;;;3.30;;
12224;SDS011;6175;50.956;11.064;2024-01-06T14:49:40;4.88;;;3.55;;